Time;durP1;ratioP1;P1;durP2;ratioP2;P2;SDS_P1;SDS_P2;PMS_P1;PMS_P2;Temp;Humidity;BMP_temperature;BMP_pressure;BME280_temperature;BME280_humidity;BME280_pressure;Samples;Min_cycle;Max_cycle;Signal;HPM_P1;HPM_P2
2022/04/02 00:00:58;;;;;;;6.97;6.35;;;8.40;73.90;;;;;;5011420;28;20225;-47
2022/04/02 00:03:27;;;;;;;6.95;6.35;;;8.40;73.90;;;;;;5012971;28;20218;-49
2022/04/02 00:05:55;;;;;;;7.35;6.65;;;8.40;74.00;;;;;;5030922;28;20720;-48
2022/04/02 00:08:24;;;;;;;7.50;6.88;;;8.40;74.00;;;;;;5020278;28;20237;-48
2022/04/02 00:10:53;;;;;;;7.20;6.50;;;8.40;75.30;;;;;;5011441;28;20246;-48
2022/04/02 00:13:23;;;;;;;7.32;6.63;;;8.40;74.00;;;;;;5010097;28;20723;-49
2022/04/02 00:15:51;;;;;;;7.25;6.65;;;8.40;74.00;;;;;;5010548;28;20218;-49
2022/04/02 00:18:21;;;;;;;8.50;7.70;;;8.40;74.00;;;;;;5030332;28;20193;-47
2022/04/02 00:20:49;;;;;;;7.75;7.15;;;8.40;74.10;;;;;;5031232;28;20589;-48
2022/04/02 00:26:04;;;;;;;6.35;5.85;;;8.30;74.00;;;;;;5017350;28;20609;-49
2022/04/02 00:28:38;;;;;;;7.10;6.40;;;8.40;74.00;;;;;;5031754;28;20614;-48
2022/04/02 00:31:10;;;;;;;6.72;6.20;;;8.40;74.00;;;;;;5021950;28;20246;-47
2022/04/02 00:33:40;;;;;;;7.10;6.50;;;8.40;74.10;;;;;;5029639;28;20270;-49
2022/04/02 00:36:09;;;;;;;7.75;6.88;;;8.40;74.10;;;;;;5030110;28;20217;-48
2022/04/02 00:38:37;;;;;;;6.70;6.20;;;8.30;74.00;;;;;;5021612;28;20229;-47
2022/04/02 00:41:06;;;;;;;7.10;6.50;;;8.30;73.90;;;;;;5011233;28;20233;-47
2022/04/02 00:43:37;;;;;;;7.97;7.18;;;8.30;74.10;;;;;;5029680;28;20210;-46
2022/04/02 00:46:07;;;;;;;6.45;5.90;;;8.30;74.00;;;;;;5030865;28;20225;-50
2022/04/02 00:48:36;;;;;;;7.53;6.82;;;8.30;74.00;;;;;;5014634;28;20214;-50
2022/04/02 00:51:12;;;;;;;6.18;5.68;;;8.30;74.00;;;;;;5010846;28;20276;-46
2022/04/02 00:53:44;;;;;;;6.85;6.25;;;8.30;74.10;;;;;;5010593;28;20213;-47
2022/04/02 00:56:14;;;;;;;6.38;5.88;;;8.30;74.10;;;;;;5010595;28;20219;-47
2022/04/02 00:58:44;;;;;;;7.00;6.40;;;8.30;74.10;;;;;;5010388;28;20201;-48
2022/04/02 01:01:16;;;;;;;6.78;6.18;;;8.30;74.00;;;;;;5009448;28;20257;-46
2022/04/02 01:03:49;;;;;;;7.63;6.93;;;8.30;74.10;;;;;;5023142;28;20212;-45
2022/04/02 01:06:22;;;;;;;6.85;6.15;;;8.30;74.00;;;;;;5028992;28;20312;-46
2022/04/02 01:08:54;;;;;;;6.90;6.32;;;8.30;74.20;;;;;;5015368;28;20285;-45
2022/04/02 01:11:22;;;;;;;7.60;6.40;;;8.30;74.20;;;;;;5002099;28;20284;-50
2022/04/02 01:13:56;;;;;;;6.45;5.95;;;8.30;74.10;;;;;;5009671;28;20209;-46
2022/04/02 01:16:24;;;;;;;7.75;7.05;;;8.30;74.10;;;;;;5008826;28;20218;-47
2022/04/02 01:19:01;;;;;;;6.10;5.60;;;8.30;74.20;;;;;;5009693;28;20202;-47
2022/04/02 01:21:30;;;;;;;6.45;5.85;;;8.20;74.10;;;;;;5041857;28;20242;-46
2022/04/02 01:24:08;;;;;;;6.40;5.90;;;8.20;74.10;;;;;;5017205;28;20479;-48
2022/04/02 01:26:37;;;;;;;6.07;5.60;;;8.30;74.20;;;;;;5009404;28;20280;-48
2022/04/02 01:29:12;;;;;;;6.05;5.50;;;8.20;74.10;;;;;;5042718;28;20190;-48
2022/04/02 01:31:46;;;;;;;5.85;5.35;;;8.20;75.50;;;;;;5027196;28;20263;-46
2022/04/02 01:34:20;;;;;;;6.47;5.93;;;8.30;74.30;;;;;;5009046;28;20309;-50
2022/04/02 01:36:51;;;;;;;6.03;5.53;;;8.20;74.20;;;;;;5010466;28;20566;-47
2022/04/02 01:39:29;;;;;;;6.07;5.47;;;8.30;74.30;;;;;;5025181;28;20200;-48
2022/04/02 01:41:57;;;;;;;5.95;5.45;;;8.20;74.20;;;;;;5010528;28;20297;-47
2022/04/02 01:44:33;;;;;;;6.20;5.60;;;8.20;74.20;;;;;;5012168;28;20254;-49
2022/04/02 01:47:01;;;;;;;6.15;5.63;;;8.20;74.10;;;;;;5019272;28;20276;-47
2022/04/02 01:49:30;;;;;;;6.00;5.50;;;8.20;74.20;;;;;;5027463;28;20222;-45
2022/04/02 01:52:01;;;;;;;5.85;5.35;;;8.20;74.30;;;;;;5028680;28;20236;-47
2022/04/02 01:54:32;;;;;;;6.00;5.45;;;8.20;74.20;;;;;;5009931;28;20481;-48
2022/04/02 01:57:08;;;;;;;5.70;5.20;;;8.20;74.30;;;;;;5041877;28;20217;-46
2022/04/02 01:59:38;;;;;;;7.03;6.43;;;8.20;74.40;;;;;;5027673;28;20259;-49
2022/04/02 02:02:07;;;;;;;5.93;5.43;;;8.20;75.60;;;;;;5008601;28;20217;-47
2022/04/02 02:04:36;;;;;;;5.93;5.43;;;8.20;74.30;;;;;;5008997;28;20238;-47
2022/04/02 02:07:06;;;;;;;5.55;5.15;;;8.20;74.20;;;;;;5009166;28;20342;-48
2022/04/02 02:09:36;;;;;;;5.85;5.35;;;8.20;74.30;;;;;;5013366;28;20200;-49
2022/04/02 02:12:31;;;;;;;6.32;5.80;;;8.20;74.30;;;;;;5014587;28;20217;-46
2022/04/02 02:15:16;;;;;;;5.80;5.35;;;8.20;74.30;;;;;;5017338;28;20248;-46
2022/04/02 02:17:51;;;;;;;5.93;5.43;;;8.10;74.20;;;;;;5030975;28;20251;-48
2022/04/02 02:20:20;;;;;;;6.78;6.18;;;8.10;74.20;;;;;;5031826;28;20247;-50
2022/04/02 02:22:49;;;;;;;7.15;6.45;;;8.10;74.30;;;;;;5031313;28;20262;-49
2022/04/02 02:25:19;;;;;;;6.28;5.78;;;8.10;74.20;;;;;;5032731;28;20201;-47
2022/04/02 02:27:49;;;;;;;6.15;5.43;;;8.10;74.40;;;;;;5032695;28;20193;-50
2022/04/02 02:30:21;;;;;;;5.88;5.25;;;8.10;74.30;;;;;;5032847;28;20196;-48
2022/04/02 02:32:49;;;;;;;5.30;4.90;;;8.10;75.60;;;;;;5026251;28;20233;-46
2022/04/02 02:38:06;;;;;;;5.68;5.18;;;8.10;74.20;;;;;;5040659;28;20193;-49
2022/04/02 02:40:41;;;;;;;6.30;5.80;;;8.10;74.30;;;;;;5011740;28;20279;-45
2022/04/02 02:43:14;;;;;;;5.90;5.40;;;8.10;74.20;;;;;;5012326;28;20641;-47
2022/04/02 02:45:45;;;;;;;5.50;5.10;;;8.10;74.30;;;;;;5021529;28;20219;-47
2022/04/02 02:48:13;;;;;;;6.88;6.20;;;8.10;74.30;;;;;;5013685;28;20198;-47
2022/04/02 02:50:47;;;;;;;6.25;5.75;;;8.10;74.30;;;;;;5012311;28;20229;-48
2022/04/02 02:53:17;;;;;;;5.05;4.65;;;8.10;74.40;;;;;;5012488;28;20241;-48
2022/04/02 02:55:49;;;;;;;6.03;5.53;;;8.10;74.40;;;;;;5011014;28;20219;-49
2022/04/02 02:58:18;;;;;;;5.88;5.35;;;8.10;74.30;;;;;;5012178;28;20673;-47
2022/04/02 03:00:47;;;;;;;6.45;5.95;;;8.10;74.30;;;;;;5011327;28;20217;-50
2022/04/02 03:03:22;;;;;;;6.53;5.97;;;8.10;74.30;;;;;;5019866;28;20308;-47
2022/04/02 03:05:52;;;;;;;5.55;5.15;;;8.10;74.20;;;;;;5028249;28;20232;-48
2022/04/02 03:08:22;;;;;;;6.03;5.43;;;8.10;74.30;;;;;;5020096;28;20218;-47
2022/04/02 03:10:58;;;;;;;5.90;5.38;;;8.10;74.30;;;;;;5014555;28;20771;-49
2022/04/02 03:13:30;;;;;;;5.65;5.20;;;8.00;74.30;;;;;;5013242;28;20217;-48
2022/04/02 03:16:07;;;;;;;4.85;4.45;;;8.00;75.60;;;;;;5017139;28;20245;-46
2022/04/02 03:18:42;;;;;;;5.15;4.75;;;8.00;74.50;;;;;;5011458;28;20500;-48
2022/04/02 03:21:16;;;;;;;6.22;5.70;;;8.00;74.20;;;;;;5010380;28;20214;-49
2022/04/02 03:23:44;;;;;;;6.22;5.63;;;8.00;74.30;;;;;;5027781;28;20212;-47
2022/04/02 03:26:17;;;;;;;5.60;5.18;;;8.00;74.40;;;;;;5013290;28;20225;-48
2022/04/02 03:28:46;;;;;;;5.60;5.10;;;8.00;74.40;;;;;;5015740;28;20189;-48
2022/04/02 03:31:17;;;;;;;6.10;5.70;;;8.00;74.40;;;;;;5029117;28;20303;-47
2022/04/02 03:33:48;;;;;;;5.40;4.90;;;8.00;74.40;;;;;;5031334;28;20221;-48
2022/04/02 03:36:16;;;;;;;6.32;5.72;;;8.00;74.40;;;;;;5030091;28;20222;-46
2022/04/02 03:38:45;;;;;;;6.55;5.95;;;7.90;74.40;;;;;;5030530;28;20233;-48
2022/04/02 03:41:17;;;;;;;5.97;5.47;;;8.00;74.60;;;;;;5030473;28;20599;-47
2022/04/02 03:43:51;;;;;;;5.80;5.30;;;7.90;75.70;;;;;;5011006;28;20205;-48
2022/04/02 03:49:10;;;;;;;5.40;4.97;;;7.90;74.50;;;;;;5044355;28;20190;-48
2022/04/02 03:51:40;;;;;;;4.57;3.83;;;8.00;74.70;;;;;;5010653;28;20216;-48
2022/04/02 03:54:13;;;;;;;5.20;4.80;;;8.00;74.60;;;;;;5010310;28;20221;-47
2022/04/02 03:56:48;;;;;;;5.53;5.03;;;8.00;74.60;;;;;;5011016;28;20224;-48
2022/04/02 03:59:18;;;;;;;5.22;4.75;;;7.90;74.50;;;;;;5010473;28;20194;-47
2022/04/02 04:01:51;;;;;;;5.20;4.75;;;7.90;74.60;;;;;;5015808;28;20569;-47
2022/04/02 04:04:21;;;;;;;5.60;5.10;;;7.90;74.60;;;;;;5029346;28;20224;-46
2022/04/02 04:06:50;;;;;;;5.82;5.38;;;7.90;74.50;;;;;;5030202;28;20300;-48
2022/04/02 04:09:19;;;;;;;5.03;4.63;;;7.90;74.50;;;;;;5028938;28;20280;-47
2022/04/02 04:11:52;;;;;;;5.15;4.75;;;7.90;74.50;;;;;;5024731;28;20287;-47
2022/04/02 04:14:24;;;;;;;5.15;4.75;;;7.90;75.90;;;;;;5020451;28;20237;-47
2022/04/02 04:16:53;;;;;;;5.18;4.70;;;7.90;74.70;;;;;;5011243;28;20217;-49
2022/04/02 04:19:23;;;;;;;5.28;4.78;;;7.90;74.60;;;;;;5009825;28;20268;-48
2022/04/02 04:21:51;;;;;;;5.55;5.15;;;7.90;74.60;;;;;;5011604;28;20589;-49
2022/04/02 04:24:22;;;;;;;5.13;4.72;;;7.90;74.70;;;;;;5028031;28;20296;-47
2022/04/02 04:26:53;;;;;;;5.10;4.70;;;7.90;74.70;;;;;;5017613;28;20271;-48
2022/04/02 04:29:22;;;;;;;5.93;5.50;;;7.90;74.60;;;;;;5038532;28;20650;-49
2022/04/02 04:31:50;;;;;;;5.38;4.88;;;7.90;74.60;;;;;;5009727;28;20233;-49
2022/04/02 04:34:19;;;;;;;5.03;4.63;;;7.90;74.60;;;;;;5020006;28;20791;-49
2022/04/02 04:36:47;;;;;;;4.78;4.38;;;7.90;74.60;;;;;;5027408;28;20221;-47
2022/04/02 04:39:17;;;;;;;5.30;4.80;;;7.90;74.70;;;;;;5019301;28;20193;-47
2022/04/02 04:41:47;;;;;;;4.60;4.20;;;7.90;74.60;;;;;;5022264;28;20229;-46
2022/04/02 04:44:18;;;;;;;5.00;4.50;;;7.90;74.70;;;;;;5029085;28;20750;-49
2022/04/02 04:46:46;;;;;;;5.32;4.93;;;7.90;74.60;;;;;;5009768;28;20213;-47
2022/04/02 04:49:18;;;;;;;5.15;4.75;;;7.80;74.60;;;;;;5009388;28;20193;-50
2022/04/02 04:51:55;;;;;;;4.32;4.03;;;7.90;74.70;;;;;;5009657;28;20244;-48
2022/04/02 04:54:24;;;;;;;4.43;4.13;;;7.90;74.70;;;;;;5009756;28;20226;-46
2022/04/02 04:56:52;;;;;;;4.07;3.78;;;7.80;74.50;;;;;;5008891;28;20217;-45
2022/04/02 04:59:25;;;;;;;4.50;4.10;;;7.80;74.60;;;;;;5027036;28;20229;-48
2022/04/02 05:01:55;;;;;;;4.43;4.13;;;7.80;74.80;;;;;;5028905;28;20243;-49
2022/04/02 05:04:23;;;;;;;3.95;3.65;;;7.80;74.70;;;;;;5025096;28;20268;-50
2022/04/02 05:06:55;;;;;;;3.95;3.65;;;7.80;74.70;;;;;;5042179;28;20296;-46
2022/04/02 05:09:24;;;;;;;3.67;3.38;;;7.80;74.70;;;;;;5008960;28;20200;-46
2022/04/02 05:11:57;;;;;;;4.68;4.28;;;7.80;74.70;;;;;;5008910;28;20237;-50
2022/04/02 05:14:27;;;;;;;4.70;4.30;;;7.80;74.80;;;;;;5009153;28;20210;-49
2022/04/02 05:16:57;;;;;;;4.95;4.50;;;7.80;74.50;;;;;;5020772;28;20223;-50
2022/04/02 05:19:30;;;;;;;4.30;4.00;;;7.80;74.70;;;;;;5014350;28;20201;-48
2022/04/02 05:22:01;;;;;;;4.15;3.75;;;7.70;74.50;;;;;;5044853;28;20220;-48
2022/04/02 05:24:32;;;;;;;3.97;3.63;;;7.80;74.90;;;;;;5014713;28;20213;-45
2022/04/02 05:27:01;;;;;;;4.15;3.80;;;7.80;74.80;;;;;;5028993;28;20734;-46
2022/04/02 05:29:31;;;;;;;3.58;3.33;;;7.80;74.90;;;;;;5029560;28;20755;-47
2022/04/02 05:32:01;;;;;;;3.80;3.50;;;7.80;74.80;;;;;;5011000;28;20304;-47
2022/04/02 05:34:29;;;;;;;4.30;4.00;;;7.70;74.70;;;;;;5030290;28;20228;-47
2022/04/02 05:37:01;;;;;;;3.88;3.58;;;7.70;74.70;;;;;;5028608;28;21542;-50
2022/04/02 05:39:29;;;;;;;4.55;4.15;;;7.70;74.80;;;;;;5010161;28;20193;-47
2022/04/02 05:41:58;;;;;;;3.85;3.55;;;7.80;75.00;;;;;;5024287;28;20222;-46
2022/04/02 05:44:26;;;;;;;4.93;4.53;;;7.70;74.80;;;;;;5007581;28;20214;-49
2022/04/02 05:46:56;;;;;;;3.72;3.42;;;7.70;74.90;;;;;;5016562;28;20233;-47
2022/04/02 05:49:43;;;;;;;4.05;3.65;;;7.70;74.70;;;;;;5010801;28;20248;-50
2022/04/02 05:52:11;;;;;;;3.88;3.58;;;7.70;74.80;;;;;;5008720;28;20220;-48
2022/04/02 05:54:39;;;;;;;3.75;3.45;;;7.70;74.70;;;;;;5009252;28;20272;-49
2022/04/02 05:57:07;;;;;;;4.45;3.63;;;7.70;74.80;;;;;;5009623;28;20247;-49
2022/04/02 05:59:35;;;;;;;3.50;3.20;;;7.70;74.90;;;;;;5010056;28;20197;-48
2022/04/02 06:02:06;;;;;;;3.90;3.60;;;7.70;74.90;;;;;;5008415;28;20216;-48
2022/04/02 06:04:35;;;;;;;4.00;3.70;;;7.70;74.90;;;;;;5029273;28;20223;-48
2022/04/02 06:07:03;;;;;;;3.80;3.50;;;7.70;74.90;;;;;;5027760;28;20220;-49
2022/04/02 06:09:31;;;;;;;3.75;3.45;;;7.70;74.70;;;;;;5008986;28;20720;-46
2022/04/02 06:12:01;;;;;;;4.18;3.80;;;7.70;74.80;;;;;;5016630;28;20292;-48
2022/04/02 06:14:29;;;;;;;3.55;3.33;;;7.70;75.00;;;;;;5010834;28;20304;-47
2022/04/02 06:16:57;;;;;;;3.50;3.10;;;7.70;74.80;;;;;;5009037;28;20253;-46
2022/04/02 06:19:27;;;;;;;3.75;3.40;;;7.70;74.50;;;;;;5009558;28;20201;-46
2022/04/02 06:22:00;;;;;;;3.63;3.33;;;7.60;74.80;;;;;;5013991;28;20216;-46
2022/04/02 06:24:28;;;;;;;3.38;3.17;;;7.70;74.90;;;;;;5008899;28;20245;-46
2022/04/02 06:26:56;;;;;;;3.42;3.13;;;7.60;74.70;;;;;;5009226;28;20237;-47
2022/04/02 06:29:25;;;;;;;3.65;3.35;;;7.70;75.00;;;;;;5010301;28;20193;-49
2022/04/02 06:31:53;;;;;;;3.33;3.03;;;7.70;74.90;;;;;;5012815;28;20275;-50
2022/04/02 06:34:21;;;;;;;3.42;3.22;;;7.60;74.80;;;;;;5026802;28;20684;-48
2022/04/02 06:36:51;;;;;;;4.18;3.88;;;7.60;74.70;;;;;;5028165;28;20225;-47
2022/04/02 06:39:19;;;;;;;3.63;3.33;;;7.60;74.70;;;;;;5009532;28;20192;-46
2022/04/02 06:41:47;;;;;;;3.25;2.95;;;7.60;74.90;;;;;;5009261;28;20301;-47
2022/04/02 06:44:16;;;;;;;3.58;3.28;;;7.60;74.50;;;;;;5009254;28;20230;-48
2022/04/02 06:46:44;;;;;;;3.55;3.25;;;7.60;74.70;;;;;;5008692;28;20221;-47
2022/04/02 06:49:12;;;;;;;3.60;3.30;;;7.60;74.60;;;;;;5009080;28;20190;-49
2022/04/02 06:51:40;;;;;;;3.25;3.05;;;7.60;74.80;;;;;;5011571;28;20697;-47
2022/04/02 06:54:09;;;;;;;3.03;2.83;;;7.60;74.70;;;;;;5007771;28;20689;-49
2022/04/02 06:56:37;;;;;;;2.78;2.50;;;7.60;74.80;;;;;;5009786;28;20424;-47
2022/04/02 06:59:06;;;;;;;3.40;3.20;;;7.60;74.70;;;;;;5013518;28;20196;-50
2022/04/02 07:01:34;;;;;;;3.05;2.85;;;7.60;74.70;;;;;;5012060;28;20229;-48
2022/04/02 07:04:03;;;;;;;2.85;2.65;;;7.60;74.70;;;;;;5019163;28;20224;-48
2022/04/02 07:06:32;;;;;;;3.05;2.85;;;7.50;74.70;;;;;;5015558;28;20221;-47
2022/04/02 07:09:00;;;;;;;2.95;2.75;;;7.60;74.70;;;;;;5016599;28;20185;-48
2022/04/02 07:11:30;;;;;;;2.85;2.65;;;7.60;74.80;;;;;;5012390;28;20722;-48
2022/04/02 07:13:59;;;;;;;3.85;3.35;;;7.60;74.60;;;;;;5012331;28;20213;-50
2022/04/02 07:16:28;;;;;;;2.92;2.72;;;7.60;74.30;;;;;;5015643;28;20617;-47
2022/04/02 07:18:58;;;;;;;3.10;2.90;;;7.50;74.60;;;;;;5011432;28;20197;-49
2022/04/02 07:21:28;;;;;;;3.25;2.92;;;7.50;74.80;;;;;;5022437;28;20753;-50
2022/04/02 07:23:57;;;;;;;2.70;2.50;;;7.50;74.90;;;;;;5018372;28;20206;-47
2022/04/02 07:26:26;;;;;;;2.83;2.50;;;7.60;74.90;;;;;;5011946;28;20268;-48
2022/04/02 07:29:00;;;;;;;3.80;3.35;;;7.50;74.60;;;;;;5021464;28;20220;-49
2022/04/02 07:31:28;;;;;;;2.65;2.40;;;7.50;74.60;;;;;;5012535;28;20274;-47
2022/04/02 07:33:56;;;;;;;3.10;2.90;;;7.50;74.70;;;;;;5011774;28;20210;-51
2022/04/02 07:36:31;;;;;;;2.70;2.50;;;7.50;74.50;;;;;;5011448;28;20592;-49
2022/04/02 07:39:04;;;;;;;2.42;2.22;;;7.50;74.70;;;;;;5015554;28;20232;-47
2022/04/02 07:41:42;;;;;;;3.10;2.90;;;7.50;74.70;;;;;;5031974;28;20684;-47
2022/04/02 07:44:24;;;;;;;2.90;2.70;;;7.50;74.90;;;;;;5031671;28;20201;-45
2022/04/02 07:46:55;;;;;;;3.33;3.00;;;7.50;74.80;;;;;;5024399;28;20611;-47
2022/04/02 07:49:25;;;;;;;3.10;2.80;;;7.50;74.90;;;;;;5020391;28;20280;-48
2022/04/02 07:51:55;;;;;;;2.80;2.60;;;7.50;74.90;;;;;;5011680;28;20300;-47
2022/04/02 07:54:25;;;;;;;3.03;2.40;;;7.50;74.70;;;;;;5025384;28;20299;-51
2022/04/02 07:56:57;;;;;;;2.92;2.72;;;7.50;74.80;;;;;;5014722;28;20233;-50
2022/04/02 07:59:37;;;;;;;2.75;2.55;;;7.50;74.80;;;;;;5017029;28;20185;-49
2022/04/02 08:02:36;;;;;;;2.78;2.58;;;7.50;76.10;;;;;;5021822;28;20227;-48
2022/04/02 08:05:00;;;;;;;3.03;2.70;;;7.50;74.70;;;;;;5021596;28;20608;-51
2022/04/02 08:07:30;;;;;;;2.65;2.45;;;7.50;75.00;;;;;;5016844;28;20229;-46
2022/04/02 08:10:01;;;;;;;2.60;2.40;;;7.50;75.00;;;;;;5019404;28;20647;-47
2022/04/02 08:12:30;;;;;;;2.97;2.72;;;7.50;75.00;;;;;;5026821;28;20267;-49
2022/04/02 08:15:00;;;;;;;3.10;2.80;;;7.50;74.90;;;;;;5018828;28;20252;-49
2022/04/02 08:17:30;;;;;;;2.60;2.40;;;7.50;74.70;;;;;;5011682;28;20311;-49
2022/04/02 08:20:01;;;;;;;3.05;2.38;;;7.50;74.90;;;;;;5016251;28;20243;-48
2022/04/02 08:22:30;;;;;;;2.60;2.40;;;7.50;74.80;;;;;;5028521;28;20643;-49
2022/04/02 08:24:58;;;;;;;2.35;2.17;;;7.50;74.90;;;;;;5030827;28;20560;-48
2022/04/02 08:27:33;;;;;;;2.70;2.33;;;7.50;74.40;;;;;;5028963;28;20217;-47
2022/04/02 08:30:07;;;;;;;3.08;2.78;;;7.50;74.70;;;;;;5011214;28;20203;-48
2022/04/02 08:33:05;;;;;;;2.42;2.22;;;7.40;74.10;;;;;;5021255;28;20221;-47
2022/04/02 08:35:41;;;;;;;2.90;2.70;;;7.50;74.60;;;;;;5021008;28;20573;-47
2022/04/02 08:38:21;;;;;;;3.40;3.10;;;7.40;74.70;;;;;;5017435;28;20277;-48
2022/04/02 08:41:34;;;;;;;2.40;2.20;;;7.40;74.70;;;;;;5025130;28;20267;-48
2022/04/02 08:44:32;;;;;;;2.67;2.45;;;7.40;74.70;;;;;;5030991;28;20623;-49
2022/04/02 08:47:11;;;;;;;2.45;2.25;;;7.40;74.70;;;;;;5010542;28;20305;-47
2022/04/02 08:49:42;;;;;;;2.67;2.47;;;7.40;74.60;;;;;;5010858;28;20453;-46
2022/04/02 08:52:21;;;;;;;2.22;2.05;;;7.40;74.60;;;;;;5027347;28;20219;-50
2022/04/02 08:55:08;;;;;;;3.28;2.85;;;7.40;74.10;;;;;;5025628;28;20241;-47
2022/04/02 08:57:51;;;;;;;2.55;2.35;;;7.40;74.70;;;;;;5020803;28;20278;-47
2022/04/02 09:00:23;;;;;;;2.65;2.45;;;7.40;74.70;;;;;;5028722;28;20557;-48
2022/04/02 09:03:21;;;;;;;3.13;2.80;;;7.40;74.40;;;;;;5011348;28;20701;-47
2022/04/02 09:06:07;;;;;;;2.72;2.53;;;7.40;74.00;;;;;;5029829;28;20621;-47
2022/04/02 09:09:05;;;;;;;2.55;2.35;;;7.40;74.80;;;;;;5018388;28;20218;-47
2022/04/02 09:11:51;;;;;;;2.15;1.95;;;7.40;74.70;;;;;;5018370;28;20716;-48
2022/04/02 09:14:46;;;;;;;2.20;2.00;;;7.40;74.80;;;;;;5018295;28;20241;-46
2022/04/02 09:17:35;;;;;;;2.97;2.67;;;7.40;74.90;;;;;;5019631;28;20283;-49
2022/04/02 09:20:29;;;;;;;3.22;2.10;;;7.40;71.60;;;;;;5019799;28;20201;-49
2022/04/02 09:23:10;;;;;;;2.58;2.38;;;7.40;72.60;;;;;;5022353;28;20264;-50
2022/04/02 09:26:21;;;;;;;3.95;2.85;;;7.40;73.10;;;;;;5029637;28;20268;-48
2022/04/02 09:29:11;;;;;;;2.40;2.20;;;7.30;73.10;;;;;;5016288;28;20244;-48
2022/04/02 09:32:13;;;;;;;2.90;2.60;;;7.40;73.50;;;;;;5029494;28;20510;-47
2022/04/02 09:35:08;;;;;;;2.35;2.10;;;7.40;73.70;;;;;;5016524;28;20213;-46
2022/04/02 09:38:06;;;;;;;5.43;2.90;;;7.40;73.80;;;;;;5011655;28;20220;-47
2022/04/02 09:40:45;;;;;;;2.60;2.40;;;7.30;73.50;;;;;;5017913;28;20200;-48
2022/04/02 09:43:27;;;;;;;2.67;2.20;;;7.40;73.60;;;;;;5012951;28;20681;-50
2022/04/02 09:46:11;;;;;;;3.20;2.53;;;7.40;73.30;;;;;;5009668;28;20245;-47
2022/04/02 09:48:51;;;;;;;3.47;2.83;;;7.40;73.40;;;;;;5010060;28;20197;-47
2022/04/02 09:51:26;;;;;;;2.10;1.85;;;7.40;73.30;;;;;;5016235;28;20247;-49
2022/04/02 09:54:03;;;;;;;2.13;1.92;;;7.40;73.60;;;;;;5022119;28;20221;-50
2022/04/02 09:56:36;;;;;;;3.17;2.30;;;7.30;72.80;;;;;;5020279;28;20476;-48
2022/04/02 09:59:06;;;;;;;2.33;2.08;;;7.40;73.10;;;;;;5009913;28;20557;-46
2022/04/02 10:01:41;;;;;;;2.90;2.35;;;7.30;73.20;;;;;;5015075;28;20631;-47
2022/04/02 10:04:31;;;;;;;2.33;2.05;;;7.30;73.70;;;;;;5013372;28;20249;-50
2022/04/02 10:07:03;;;;;;;3.42;2.60;;;7.30;73.40;;;;;;5009250;28;20260;-49
2022/04/02 10:09:36;;;;;;;3.15;2.10;;;7.30;73.60;;;;;;5028541;28;20292;-48
2022/04/02 10:12:08;;;;;;;2.40;2.20;;;7.30;73.50;;;;;;5028709;28;20267;-48
2022/04/02 10:14:40;;;;;;;2.80;2.20;;;7.40;73.90;;;;;;5027994;28;20271;-48
2022/04/02 10:17:08;;;;;;;2.58;2.38;;;7.30;73.50;;;;;;5025838;28;20232;-46
2022/04/02 10:19:40;;;;;;;2.30;2.10;;;7.30;72.30;;;;;;5023454;28;20542;-49
2022/04/02 10:22:09;;;;;;;2.95;2.15;;;7.30;73.70;;;;;;5009377;28;20213;-48
2022/04/02 10:24:41;;;;;;;2.15;2.00;;;7.30;73.20;;;;;;5015686;28;20220;-46
2022/04/02 10:27:11;;;;;;;2.30;2.03;;;7.30;73.50;;;;;;5024170;28;20237;-47
2022/04/02 10:29:59;;;;;;;2.10;1.90;;;7.30;73.80;;;;;;5025299;28;20205;-47
2022/04/02 10:32:52;;;;;;;1.83;1.60;;;7.30;73.40;;;;;;5011233;28;20644;-49
2022/04/02 10:35:25;;;;;;;3.08;2.78;;;7.30;73.00;;;;;;5012713;28;20217;-49
2022/04/02 10:38:09;;;;;;;2.72;2.53;;;7.30;73.20;;;;;;5024829;28;20217;-49
2022/04/02 10:40:45;;;;;;;2.40;2.20;;;7.30;73.40;;;;;;5017663;28;20660;-49
2022/04/02 10:43:25;;;;;;;3.10;2.35;;;7.30;72.90;;;;;;5032825;28;20227;-47
2022/04/02 10:45:56;;;;;;;2.70;1.85;;;7.30;72.60;;;;;;5015657;28;20228;-46
2022/04/02 10:48:39;;;;;;;2.55;2.35;;;7.30;73.20;;;;;;5013427;28;20194;-45
2022/04/02 10:51:09;;;;;;;3.13;2.33;;;7.30;72.70;;;;;;5018251;28;20224;-47
2022/04/02 10:53:45;;;;;;;2.08;1.90;;;7.30;73.10;;;;;;5019644;28;20217;-47
2022/04/02 10:56:18;;;;;;;2.72;2.47;;;7.30;73.10;;;;;;5016778;28;20217;-45
2022/04/02 10:58:54;;;;;;;2.65;2.13;;;7.30;73.00;;;;;;5032324;28;20656;-48
2022/04/02 11:01:24;;;;;;;1.90;1.80;;;7.30;72.40;;;;;;5011813;28;20233;-47
2022/04/02 11:03:56;;;;;;;2.85;1.88;;;7.30;73.40;;;;;;5026066;28;20209;-47
2022/04/02 11:10:31;;;;;;;1.80;1.65;;;7.30;73.40;;;;;;4991652;28;20185;-48
2022/04/02 11:13:07;;;;;;;2.53;2.33;;;7.30;73.60;;;;;;5013515;28;20193;-48
2022/04/02 11:15:41;;;;;;;2.28;2.08;;;7.30;73.80;;;;;;5012356;28;20284;-48
2022/04/02 11:18:18;;;;;;;2.10;1.80;;;7.30;73.50;;;;;;5013700;28;20448;-47
2022/04/02 11:20:48;;;;;;;2.10;1.90;;;7.30;73.70;;;;;;5021830;28;20248;-48
2022/04/02 11:23:24;;;;;;;2.97;1.98;;;7.30;73.70;;;;;;5015250;28;20225;-47
2022/04/02 11:26:03;;;;;;;2.30;2.10;;;7.30;73.60;;;;;;5021319;28;20316;-48
2022/04/02 11:28:44;;;;;;;2.30;1.95;;;7.30;73.50;;;;;;5017078;28;20653;-48
2022/04/02 11:31:15;;;;;;;2.17;1.98;;;7.30;73.70;;;;;;5018732;28;20255;-50
2022/04/02 11:33:52;;;;;;;1.52;1.42;;;7.30;73.80;;;;;;5020156;28;20597;-49
2022/04/02 11:36:36;;;;;;;2.17;1.75;;;7.30;74.40;;;;;;5017328;28;20728;-48
2022/04/02 11:39:11;;;;;;;2.20;2.00;;;7.30;73.50;;;;;;5028038;28;20629;-46
2022/04/02 11:41:43;;;;;;;2.38;1.70;;;7.30;73.50;;;;;;5011705;28;20246;-47
2022/04/02 11:44:16;;;;;;;2.10;1.90;;;7.30;73.70;;;;;;5013865;28;20244;-48
2022/04/02 11:46:54;;;;;;;2.00;1.50;;;7.30;73.30;;;;;;5029790;28;20695;-48
2022/04/02 11:49:27;;;;;;;4.28;2.30;;;7.20;73.70;;;;;;5011371;28;20198;-50
2022/04/02 11:52:02;;;;;;;2.08;1.90;;;7.30;73.20;;;;;;5025887;28;20233;-48
2022/04/02 11:54:31;;;;;;;2.60;2.30;;;7.20;74.90;;;;;;5021789;28;20217;-48
2022/04/02 11:57:10;;;;;;;3.10;2.15;;;7.30;73.60;;;;;;5026025;28;20933;-48
2022/04/02 11:59:50;;;;;;;2.00;1.70;;;7.30;73.90;;;;;;5013647;28;20190;-48
2022/04/02 12:02:35;;;;;;;2.95;2.00;;;7.20;73.90;;;;;;5020997;28;20387;-47
2022/04/02 12:05:06;;;;;;;1.70;1.60;;;7.30;73.90;;;;;;5021891;28;20245;-47
2022/04/02 12:07:42;;;;;;;2.55;2.35;;;7.30;74.00;;;;;;5018891;28;20767;-47
2022/04/02 12:10:32;;;;;;;3.47;2.42;;;7.30;73.80;;;;;;5021004;28;20243;-47
2022/04/02 12:13:07;;;;;;;2.08;1.77;;;7.30;73.40;;;;;;5025958;28;20214;-47
2022/04/02 12:15:38;;;;;;;2.45;2.20;;;7.20;75.10;;;;;;5018492;28;20225;-49
2022/04/02 12:18:08;;;;;;;1.98;1.88;;;7.20;73.60;;;;;;5031245;28;20596;-46
2022/04/02 12:20:38;;;;;;;2.90;2.20;;;7.20;73.70;;;;;;5011472;28;20197;-46
2022/04/02 12:23:11;;;;;;;2.45;2.03;;;7.20;73.60;;;;;;5010586;28;20721;-47
2022/04/02 12:25:45;;;;;;;3.00;2.53;;;7.20;73.80;;;;;;5025029;28;20196;-46
2022/04/02 12:28:16;;;;;;;2.00;1.83;;;7.20;74.00;;;;;;5025407;28;20645;-48
2022/04/02 12:30:48;;;;;;;2.40;1.85;;;7.20;74.20;;;;;;5022868;28;20189;-46
2022/04/02 12:33:21;;;;;;;1.70;1.60;;;7.30;74.30;;;;;;5012071;28;20209;-46
2022/04/02 12:35:57;;;;;;;1.90;1.70;;;7.30;74.30;;;;;;5011633;28;20229;-48
2022/04/02 12:38:30;;;;;;;2.47;2.20;;;7.20;74.20;;;;;;5020231;28;20226;-48
2022/04/02 12:41:00;;;;;;;1.70;1.50;;;7.20;74.20;;;;;;5017998;28;20225;-48
2022/04/02 12:43:30;;;;;;;2.35;2.15;;;7.30;74.30;;;;;;5028496;28;20213;-49
2022/04/02 12:46:00;;;;;;;2.00;1.55;;;7.20;74.20;;;;;;5022891;28;20240;-48
2022/04/02 12:48:42;;;;;;;2.30;2.10;;;7.30;74.40;;;;;;5022549;28;20196;-47
2022/04/02 12:51:14;;;;;;;1.67;1.58;;;7.20;74.20;;;;;;5025339;28;20304;-48
2022/04/02 12:53:44;;;;;;;3.25;2.20;;;7.30;74.40;;;;;;5019685;28;20299;-49
2022/04/02 12:56:18;;;;;;;2.80;2.55;;;7.20;74.30;;;;;;5029941;28;20221;-49
2022/04/02 12:58:48;;;;;;;1.98;1.88;;;7.20;74.30;;;;;;5020153;28;20213;-46
2022/04/02 13:01:28;;;;;;;3.00;2.20;;;7.20;74.40;;;;;;5009589;28;20218;-48
2022/04/02 13:04:08;;;;;;;1.60;1.50;;;7.20;74.30;;;;;;5016163;28;20584;-45
2022/04/02 13:06:47;;;;;;;1.55;1.45;;;7.20;74.30;;;;;;5016914;28;20222;-47
2022/04/02 13:09:17;;;;;;;2.22;2.03;;;7.20;74.50;;;;;;5018291;28;20395;-48
2022/04/02 13:11:55;;;;;;;2.08;1.80;;;7.20;74.40;;;;;;5021522;28;20294;-46
2022/04/02 13:14:25;;;;;;;2.22;2.03;;;7.20;74.50;;;;;;5027627;28;20217;-48
2022/04/02 13:16:56;;;;;;;2.22;2.03;;;7.20;74.40;;;;;;5010291;28;20213;-49
2022/04/02 13:22:15;;;;;;;2.17;2.08;;;7.20;74.50;;;;;;5010094;28;20260;-48
2022/04/02 13:24:54;;;;;;;2.20;2.00;;;7.20;74.60;;;;;;5012008;28;20772;-49
2022/04/02 13:27:50;;;;;;;1.90;1.80;;;7.20;74.60;;;;;;5022996;28;20239;-46
2022/04/02 13:30:19;;;;;;;2.15;1.95;;;7.20;74.70;;;;;;5013430;28;20195;-48
2022/04/02 13:33:29;;;;;;;3.88;2.60;;;7.20;74.80;;;;;;5027660;28;20267;-47
2022/04/02 13:36:10;;;;;;;7.55;3.50;;;7.30;75.40;;;;;;5009747;28;20248;-46
2022/04/02 13:38:52;;;;;;;8.00;4.05;;;7.30;75.50;;;;;;5017301;28;20213;-48
2022/04/02 13:41:28;;;;;;;6.95;2.90;;;7.20;75.20;;;;;;5012450;28;20272;-49
2022/04/02 13:43:59;;;;;;;4.43;3.40;;;7.20;75.10;;;;;;5029164;28;20754;-49
2022/04/02 13:46:29;;;;;;;10.60;3.72;;;7.30;75.20;;;;;;5019220;28;20232;-47